sensor_id;sensor_type;location;lat;lon;timestamp;P1;durP1;ratioP1;P2;durP2;ratioP2
41635;SDS011;27623;51.966;4.602;2022-08-01T00:00:00;9.13;;;4.80;;
41635;SDS011;27623;51.966;4.602;2022-08-01T00:02:27;8.70;;;4.68;;
41635;SDS011;27623;51.966;4.602;2022-08-01T00:04:56;10.15;;;4.55;;
41635;SDS011;27623;51.966;4.602;2022-08-01T00:07:25;9.38;;;4.57;;
41635;SDS011;27623;51.966;4.602;2022-08-01T00:09:50;8.35;;;4.47;;
41635;SDS011;27623;51.966;4.602;2022-08-01T00:12:16;8.32;;;4.93;;
41635;SDS011;27623;51.966;4.602;2022-08-01T00:14:41;9.48;;;4.95;;
41635;SDS011;27623;51.966;4.602;2022-08-01T00:17:07;10.05;;;3.63;;
41635;SDS011;27623;51.966;4.602;2022-08-01T00:19:33;7.57;;;4.40;;
41635;SDS011;27623;51.966;4.602;2022-08-01T00:21:58;8.15;;;4.32;;
41635;SDS011;27623;51.966;4.602;2022-08-01T00:24:24;9.25;;;4.30;;
41635;SDS011;27623;51.966;4.602;2022-08-01T00:26:49;7.32;;;4.05;;
41635;SDS011;27623;51.966;4.602;2022-08-01T00:29:14;9.20;;;4.47;;
41635;SDS011;27623;51.966;4.602;2022-08-01T00:31:40;10.23;;;3.92;;
41635;SDS011;27623;51.966;4.602;2022-08-01T00:34:06;7.25;;;3.90;;
41635;SDS011;27623;51.966;4.602;2022-08-01T00:36:31;8.35;;;4.75;;
41635;SDS011;27623;51.966;4.602;2022-08-01T00:38:57;8.82;;;4.85;;
41635;SDS011;27623;51.966;4.602;2022-08-01T00:41:22;9.63;;;4.25;;
41635;SDS011;27623;51.966;4.602;2022-08-01T00:43:47;8.13;;;4.40;;
41635;SDS011;27623;51.966;4.602;2022-08-01T00:46:13;9.70;;;4.35;;
41635;SDS011;27623;51.966;4.602;2022-08-01T00:48:47;9.82;;;4.00;;
41635;SDS011;27623;51.966;4.602;2022-08-01T00:51:15;10.25;;;4.05;;
41635;SDS011;27623;51.966;4.602;2022-08-01T00:53:41;9.70;;;4.05;;
41635;SDS011;27623;51.966;4.602;2022-08-01T00:56:07;7.72;;;4.13;;
41635;SDS011;27623;51.966;4.602;2022-08-01T00:58:33;7.53;;;4.25;;
41635;SDS011;27623;51.966;4.602;2022-08-01T01:00:59;7.18;;;4.05;;
41635;SDS011;27623;51.966;4.602;2022-08-01T01:03:24;13.48;;;4.40;;
41635;SDS011;27623;51.966;4.602;2022-08-01T01:06:13;10.02;;;4.68;;
41635;SDS011;27623;51.966;4.602;2022-08-01T01:08:55;10.25;;;4.03;;
41635;SDS011;27623;51.966;4.602;2022-08-01T01:15:04;9.73;;;3.88;;
41635;SDS011;27623;51.966;4.602;2022-08-01T01:17:54;8.18;;;4.38;;
41635;SDS011;27623;51.966;4.602;2022-08-01T01:20:24;9.98;;;4.22;;
41635;SDS011;27623;51.966;4.602;2022-08-01T01:23:04;10.20;;;4.15;;
41635;SDS011;27623;51.966;4.602;2022-08-01T01:25:51;12.38;;;4.70;;
41635;SDS011;27623;51.966;4.602;2022-08-01T01:31:31;9.02;;;3.97;;
41635;SDS011;27623;51.966;4.602;2022-08-01T01:34:01;11.75;;;3.55;;
41635;SDS011;27623;51.966;4.602;2022-08-01T01:36:29;7.57;;;4.13;;
41635;SDS011;27623;51.966;4.602;2022-08-01T01:38:57;7.00;;;3.28;;
41635;SDS011;27623;51.966;4.602;2022-08-01T01:41:25;11.00;;;3.25;;
41635;SDS011;27623;51.966;4.602;2022-08-01T01:43:52;4.82;;;2.38;;
41635;SDS011;27623;51.966;4.602;2022-08-01T01:46:20;6.88;;;2.83;;
41635;SDS011;27623;51.966;4.602;2022-08-01T01:48:52;7.00;;;3.10;;
41635;SDS011;27623;51.966;4.602;2022-08-01T01:51:21;4.95;;;2.80;;
41635;SDS011;27623;51.966;4.602;2022-08-01T01:53:49;5.32;;;2.67;;
41635;SDS011;27623;51.966;4.602;2022-08-01T01:56:17;8.80;;;2.83;;
41635;SDS011;27623;51.966;4.602;2022-08-01T01:58:44;6.57;;;2.22;;
41635;SDS011;27623;51.966;4.602;2022-08-01T02:01:18;4.68;;;1.67;;
41635;SDS011;27623;51.966;4.602;2022-08-01T02:03:44;4.00;;;1.88;;
41635;SDS011;27623;51.966;4.602;2022-08-01T02:06:11;3.72;;;2.17;;
41635;SDS011;27623;51.966;4.602;2022-08-01T02:08:40;3.40;;;1.98;;
41635;SDS011;27623;51.966;4.602;2022-08-01T02:11:07;5.57;;;1.92;;
41635;SDS011;27623;51.966;4.602;2022-08-01T02:13:46;5.03;;;2.53;;
41635;SDS011;27623;51.966;4.602;2022-08-01T02:16:25;3.92;;;1.65;;
41635;SDS011;27623;51.966;4.602;2022-08-01T02:18:53;4.85;;;2.40;;
41635;SDS011;27623;51.966;4.602;2022-08-01T02:22:24;4.00;;;1.77;;
41635;SDS011;27623;51.966;4.602;2022-08-01T02:27:08;4.38;;;1.88;;
41635;SDS011;27623;51.966;4.602;2022-08-01T02:29:41;4.03;;;1.75;;
41635;SDS011;27623;51.966;4.602;2022-08-01T02:32:12;5.22;;;1.60;;
41635;SDS011;27623;51.966;4.602;2022-08-01T02:34:44;6.45;;;2.28;;
41635;SDS011;27623;51.966;4.602;2022-08-01T02:37:14;3.47;;;2.20;;
41635;SDS011;27623;51.966;4.602;2022-08-01T02:39:41;5.00;;;1.88;;
41635;SDS011;27623;51.966;4.602;2022-08-01T02:42:07;3.40;;;1.70;;
41635;SDS011;27623;51.966;4.602;2022-08-01T02:44:39;3.72;;;1.73;;
41635;SDS011;27623;51.966;4.602;2022-08-01T02:47:08;2.80;;;1.73;;
41635;SDS011;27623;51.966;4.602;2022-08-01T02:49:36;4.97;;;2.20;;
41635;SDS011;27623;51.966;4.602;2022-08-01T02:52:07;4.97;;;2.03;;
41635;SDS011;27623;51.966;4.602;2022-08-01T02:54:34;3.53;;;1.90;;
41635;SDS011;27623;51.966;4.602;2022-08-01T02:57:02;4.10;;;2.15;;
41635;SDS011;27623;51.966;4.602;2022-08-01T02:59:29;4.60;;;2.33;;
41635;SDS011;27623;51.966;4.602;2022-08-01T03:01:57;7.32;;;2.75;;
41635;SDS011;27623;51.966;4.602;2022-08-01T03:04:24;4.30;;;2.50;;
41635;SDS011;27623;51.966;4.602;2022-08-01T03:06:55;3.13;;;2.40;;
41635;SDS011;27623;51.966;4.602;2022-08-01T03:09:23;4.13;;;2.58;;
41635;SDS011;27623;51.966;4.602;2022-08-01T03:11:51;6.43;;;2.80;;
41635;SDS011;27623;51.966;4.602;2022-08-01T03:14:17;5.18;;;2.35;;
41635;SDS011;27623;51.966;4.602;2022-08-01T03:16:46;6.00;;;2.42;;
41635;SDS011;27623;51.966;4.602;2022-08-01T03:19:14;4.68;;;2.30;;
41635;SDS011;27623;51.966;4.602;2022-08-01T03:21:43;6.32;;;2.92;;
41635;SDS011;27623;51.966;4.602;2022-08-01T03:24:10;4.43;;;2.42;;
41635;SDS011;27623;51.966;4.602;2022-08-01T03:26:38;5.38;;;2.65;;
41635;SDS011;27623;51.966;4.602;2022-08-01T03:29:06;9.05;;;2.60;;
41635;SDS011;27623;51.966;4.602;2022-08-01T03:31:37;4.18;;;2.65;;
41635;SDS011;27623;51.966;4.602;2022-08-01T03:34:07;9.73;;;2.95;;
41635;SDS011;27623;51.966;4.602;2022-08-01T03:36:33;6.72;;;3.72;;
41635;SDS011;27623;51.966;4.602;2022-08-01T03:39:03;4.72;;;2.60;;
41635;SDS011;27623;51.966;4.602;2022-08-01T03:41:38;7.45;;;2.45;;
41635;SDS011;27623;51.966;4.602;2022-08-01T03:44:08;4.35;;;2.35;;
41635;SDS011;27623;51.966;4.602;2022-08-01T03:46:48;5.00;;;2.90;;
41635;SDS011;27623;51.966;4.602;2022-08-01T03:49:17;6.32;;;1.98;;
41635;SDS011;27623;51.966;4.602;2022-08-01T03:51:48;3.58;;;2.03;;
41635;SDS011;27623;51.966;4.602;2022-08-01T03:54:16;4.18;;;1.50;;
41635;SDS011;27623;51.966;4.602;2022-08-01T03:56:46;4.05;;;2.10;;
41635;SDS011;27623;51.966;4.602;2022-08-01T03:59:14;6.10;;;2.00;;
41635;SDS011;27623;51.966;4.602;2022-08-01T04:01:41;4.15;;;1.90;;
41635;SDS011;27623;51.966;4.602;2022-08-01T04:04:08;3.92;;;1.80;;
41635;SDS011;27623;51.966;4.602;2022-08-01T04:06:37;3.47;;;1.60;;
41635;SDS011;27623;51.966;4.602;2022-08-01T04:09:06;4.45;;;1.70;;
41635;SDS011;27623;51.966;4.602;2022-08-01T04:11:32;2.13;;;1.50;;
41635;SDS011;27623;51.966;4.602;2022-08-01T04:13:58;3.88;;;1.42;;
41635;SDS011;27623;51.966;4.602;2022-08-01T04:16:23;3.28;;;1.48;;
41635;SDS011;27623;51.966;4.602;2022-08-01T04:18:49;3.90;;;1.30;;
41635;SDS011;27623;51.966;4.602;2022-08-01T04:21:14;4.82;;;1.50;;
41635;SDS011;27623;51.966;4.602;2022-08-01T04:23:54;1.98;;;1.27;;
41635;SDS011;27623;51.966;4.602;2022-08-01T04:26:22;5.60;;;1.55;;
41635;SDS011;27623;51.966;4.602;2022-08-01T04:28:50;1.88;;;1.38;;
41635;SDS011;27623;51.966;4.602;2022-08-01T04:31:17;5.45;;;1.48;;
41635;SDS011;27623;51.966;4.602;2022-08-01T04:33:45;3.45;;;1.60;;
41635;SDS011;27623;51.966;4.602;2022-08-01T04:36:14;2.70;;;1.48;;
41635;SDS011;27623;51.966;4.602;2022-08-01T04:38:45;4.20;;;1.55;;
41635;SDS011;27623;51.966;4.602;2022-08-01T04:41:13;2.65;;;1.20;;
41635;SDS011;27623;51.966;4.602;2022-08-01T04:43:40;2.50;;;1.30;;
41635;SDS011;27623;51.966;4.602;2022-08-01T04:46:07;5.07;;;1.55;;
41635;SDS011;27623;51.966;4.602;2022-08-01T04:48:34;5.25;;;1.45;;
41635;SDS011;27623;51.966;4.602;2022-08-01T04:51:03;3.60;;;1.60;;
41635;SDS011;27623;51.966;4.602;2022-08-01T04:53:28;3.03;;;1.42;;
41635;SDS011;27623;51.966;4.602;2022-08-01T04:55:57;4.30;;;1.50;;
41635;SDS011;27623;51.966;4.602;2022-08-01T04:58:25;2.78;;;1.33;;
41635;SDS011;27623;51.966;4.602;2022-08-01T05:00:51;2.22;;;1.17;;
41635;SDS011;27623;51.966;4.602;2022-08-01T05:03:16;2.97;;;1.45;;
41635;SDS011;27623;51.966;4.602;2022-08-01T05:05:43;2.22;;;1.23;;
41635;SDS011;27623;51.966;4.602;2022-08-01T05:08:09;2.95;;;1.48;;
41635;SDS011;27623;51.966;4.602;2022-08-01T05:10:35;2.50;;;1.40;;
41635;SDS011;27623;51.966;4.602;2022-08-01T05:13:00;6.15;;;1.50;;
41635;SDS011;27623;51.966;4.602;2022-08-01T05:15:25;6.13;;;1.55;;
41635;SDS011;27623;51.966;4.602;2022-08-01T05:17:51;2.83;;;1.60;;
41635;SDS011;27623;51.966;4.602;2022-08-01T05:20:17;2.58;;;1.15;;
41635;SDS011;27623;51.966;4.602;2022-08-01T05:22:43;3.22;;;1.40;;
41635;SDS011;27623;51.966;4.602;2022-08-01T05:25:08;3.13;;;1.25;;
41635;SDS011;27623;51.966;4.602;2022-08-01T05:27:34;4.63;;;1.40;;
41635;SDS011;27623;51.966;4.602;2022-08-01T05:30:05;3.08;;;1.40;;
41635;SDS011;27623;51.966;4.602;2022-08-01T05:32:34;2.47;;;1.30;;
41635;SDS011;27623;51.966;4.602;2022-08-01T05:35:00;3.65;;;1.50;;
41635;SDS011;27623;51.966;4.602;2022-08-01T05:37:26;5.60;;;1.30;;
41635;SDS011;27623;51.966;4.602;2022-08-01T05:39:51;2.75;;;1.75;;
41635;SDS011;27623;51.966;4.602;2022-08-01T05:42:17;3.38;;;1.55;;
41635;SDS011;27623;51.966;4.602;2022-08-01T05:44:43;3.95;;;1.60;;
41635;SDS011;27623;51.966;4.602;2022-08-01T05:47:12;2.72;;;1.30;;
41635;SDS011;27623;51.966;4.602;2022-08-01T05:49:38;3.75;;;1.55;;
41635;SDS011;27623;51.966;4.602;2022-08-01T05:52:04;3.85;;;1.40;;
41635;SDS011;27623;51.966;4.602;2022-08-01T05:54:30;3.85;;;1.30;;
41635;SDS011;27623;51.966;4.602;2022-08-01T05:56:55;2.58;;;1.60;;
41635;SDS011;27623;51.966;4.602;2022-08-01T05:59:24;5.50;;;1.73;;
41635;SDS011;27623;51.966;4.602;2022-08-01T06:01:50;4.38;;;1.63;;
41635;SDS011;27623;51.966;4.602;2022-08-01T06:04:15;3.38;;;1.50;;
41635;SDS011;27623;51.966;4.602;2022-08-01T06:06:41;4.78;;;1.70;;
41635;SDS011;27623;51.966;4.602;2022-08-01T06:09:07;3.17;;;1.63;;
41635;SDS011;27623;51.966;4.602;2022-08-01T06:11:32;2.90;;;1.73;;
41635;SDS011;27623;51.966;4.602;2022-08-01T06:13:58;2.85;;;1.50;;
41635;SDS011;27623;51.966;4.602;2022-08-01T06:16:24;4.93;;;1.95;;
41635;SDS011;27623;51.966;4.602;2022-08-01T06:18:49;3.63;;;1.98;;
41635;SDS011;27623;51.966;4.602;2022-08-01T06:21:14;3.28;;;1.60;;
41635;SDS011;27623;51.966;4.602;2022-08-01T06:23:40;4.18;;;1.40;;
41635;SDS011;27623;51.966;4.602;2022-08-01T06:26:07;3.30;;;1.70;;
41635;SDS011;27623;51.966;4.602;2022-08-01T06:28:33;4.00;;;1.85;;
41635;SDS011;27623;51.966;4.602;2022-08-01T06:30:58;3.42;;;1.27;;
41635;SDS011;27623;51.966;4.602;2022-08-01T06:33:27;2.47;;;1.52;;
41635;SDS011;27623;51.966;4.602;2022-08-01T06:35:53;4.40;;;1.90;;
41635;SDS011;27623;51.966;4.602;2022-08-01T06:38:19;3.53;;;1.85;;
41635;SDS011;27623;51.966;4.602;2022-08-01T06:40:44;4.13;;;2.20;;
41635;SDS011;27623;51.966;4.602;2022-08-01T06:43:10;4.70;;;2.03;;
41635;SDS011;27623;51.966;4.602;2022-08-01T06:45:38;2.67;;;2.10;;
41635;SDS011;27623;51.966;4.602;2022-08-01T06:48:04;3.10;;;2.28;;
41635;SDS011;27623;51.966;4.602;2022-08-01T06:50:30;4.10;;;2.10;;
41635;SDS011;27623;51.966;4.602;2022-08-01T06:52:56;4.07;;;2.80;;
41635;SDS011;27623;51.966;4.602;2022-08-01T06:55:23;4.82;;;3.65;;
41635;SDS011;27623;51.966;4.602;2022-08-01T06:57:51;6.53;;;4.28;;
41635;SDS011;27623;51.966;4.602;2022-08-01T07:00:18;7.15;;;4.20;;
41635;SDS011;27623;51.966;4.602;2022-08-01T07:02:47;9.25;;;4.80;;
41635;SDS011;27623;51.966;4.602;2022-08-01T07:05:14;8.05;;;4.85;;
41635;SDS011;27623;51.966;4.602;2022-08-01T07:07:39;10.63;;;4.88;;
41635;SDS011;27623;51.966;4.602;2022-08-01T07:10:05;8.75;;;4.85;;
41635;SDS011;27623;51.966;4.602;2022-08-01T07:12:33;7.10;;;4.68;;
41635;SDS011;27623;51.966;4.602;2022-08-01T07:15:01;15.15;;;5.18;;
41635;SDS011;27623;51.966;4.602;2022-08-01T07:17:28;12.70;;;4.53;;
41635;SDS011;27623;51.966;4.602;2022-08-01T07:19:53;12.82;;;4.50;;
41635;SDS011;27623;51.966;4.602;2022-08-01T07:22:19;14.90;;;5.20;;
41635;SDS011;27623;51.966;4.602;2022-08-01T07:24:45;12.02;;;4.95;;
41635;SDS011;27623;51.966;4.602;2022-08-01T07:27:11;12.30;;;4.70;;
41635;SDS011;27623;51.966;4.602;2022-08-01T07:29:36;14.40;;;5.38;;
41635;SDS011;27623;51.966;4.602;2022-08-01T07:32:01;12.40;;;6.00;;
41635;SDS011;27623;51.966;4.602;2022-08-01T07:34:27;11.70;;;5.07;;
41635;SDS011;27623;51.966;4.602;2022-08-01T07:36:52;15.50;;;5.78;;
41635;SDS011;27623;51.966;4.602;2022-08-01T07:39:18;17.15;;;7.03;;
41635;SDS011;27623;51.966;4.602;2022-08-01T07:41:44;18.17;;;7.00;;
41635;SDS011;27623;51.966;4.602;2022-08-01T07:44:09;17.35;;;8.82;;
41635;SDS011;27623;51.966;4.602;2022-08-01T07:46:35;17.98;;;8.10;;
41635;SDS011;27623;51.966;4.602;2022-08-01T07:49:01;25.55;;;8.43;;
41635;SDS011;27623;51.966;4.602;2022-08-01T07:51:26;20.00;;;7.15;;
41635;SDS011;27623;51.966;4.602;2022-08-01T07:53:51;12.27;;;6.50;;
41635;SDS011;27623;51.966;4.602;2022-08-01T07:56:17;15.63;;;6.47;;
41635;SDS011;27623;51.966;4.602;2022-08-01T07:58:42;22.48;;;6.13;;
41635;SDS011;27623;51.966;4.602;2022-08-01T08:01:08;18.90;;;6.10;;
41635;SDS011;27623;51.966;4.602;2022-08-01T08:03:33;12.77;;;5.40;;
41635;SDS011;27623;51.966;4.602;2022-08-01T08:05:59;16.15;;;5.72;;
41635;SDS011;27623;51.966;4.602;2022-08-01T08:08:24;16.05;;;5.32;;
41635;SDS011;27623;51.966;4.602;2022-08-01T08:10:50;12.48;;;4.57;;
41635;SDS011;27623;51.966;4.602;2022-08-01T08:13:15;17.33;;;4.57;;
41635;SDS011;27623;51.966;4.602;2022-08-01T08:15:41;12.80;;;4.72;;
41635;SDS011;27623;51.966;4.602;2022-08-01T08:18:06;9.80;;;3.97;;
41635;SDS011;27623;51.966;4.602;2022-08-01T08:20:31;13.10;;;3.58;;
41635;SDS011;27623;51.966;4.602;2022-08-01T08:22:57;15.27;;;3.83;;
41635;SDS011;27623;51.966;4.602;2022-08-01T08:25:23;11.77;;;3.25;;
41635;SDS011;27623;51.966;4.602;2022-08-01T08:27:50;10.45;;;3.10;;
41635;SDS011;27623;51.966;4.602;2022-08-01T08:30:18;7.97;;;3.08;;
41635;SDS011;27623;51.966;4.602;2022-08-01T08:32:43;10.48;;;2.47;;
41635;SDS011;27623;51.966;4.602;2022-08-01T08:35:09;15.80;;;3.33;;
41635;SDS011;27623;51.966;4.602;2022-08-01T08:37:36;8.05;;;2.75;;
41635;SDS011;27623;51.966;4.602;2022-08-01T08:40:03;9.65;;;2.53;;
41635;SDS011;27623;51.966;4.602;2022-08-01T08:42:29;11.88;;;2.53;;
41635;SDS011;27623;51.966;4.602;2022-08-01T08:44:55;14.05;;;2.13;;
41635;SDS011;27623;51.966;4.602;2022-08-01T08:47:21;12.68;;;2.35;;
41635;SDS011;27623;51.966;4.602;2022-08-01T08:49:49;8.02;;;2.58;;
41635;SDS011;27623;51.966;4.602;2022-08-01T08:52:17;10.45;;;2.75;;
41635;SDS011;27623;51.966;4.602;2022-08-01T08:54:45;7.75;;;2.00;;
41635;SDS011;27623;51.966;4.602;2022-08-01T08:57:12;11.38;;;1.80;;
41635;SDS011;27623;51.966;4.602;2022-08-01T08:59:39;13.15;;;4.05;;
41635;SDS011;27623;51.966;4.602;2022-08-01T09:02:05;10.98;;;2.30;;
41635;SDS011;27623;51.966;4.602;2022-08-01T09:04:32;9.43;;;2.10;;
41635;SDS011;27623;51.966;4.602;2022-08-01T09:06:58;10.02;;;2.88;;
41635;SDS011;27623;51.966;4.602;2022-08-01T09:09:23;9.75;;;1.90;;
41635;SDS011;27623;51.966;4.602;2022-08-01T09:11:49;10.43;;;2.13;;
41635;SDS011;27623;51.966;4.602;2022-08-01T09:14:16;12.88;;;2.47;;
41635;SDS011;27623;51.966;4.602;2022-08-01T09:16:58;7.35;;;1.67;;
41635;SDS011;27623;51.966;4.602;2022-08-01T09:19:37;8.68;;;1.77;;
41635;SDS011;27623;51.966;4.602;2022-08-01T09:22:07;7.38;;;2.38;;
41635;SDS011;27623;51.966;4.602;2022-08-01T09:24:34;8.57;;;1.85;;
41635;SDS011;27623;51.966;4.602;2022-08-01T09:27:00;11.68;;;2.00;;
41635;SDS011;27623;51.966;4.602;2022-08-01T09:29:39;9.15;;;1.85;;
41635;SDS011;27623;51.966;4.602;2022-08-01T09:32:05;10.02;;;2.13;;
41635;SDS011;27623;51.966;4.602;2022-08-01T09:34:31;6.47;;;1.58;;
41635;SDS011;27623;51.966;4.602;2022-08-01T09:36:58;12.75;;;1.83;;
41635;SDS011;27623;51.966;4.602;2022-08-01T09:39:26;6.03;;;1.52;;
41635;SDS011;27623;51.966;4.602;2022-08-01T09:41:53;7.38;;;1.83;;
41635;SDS011;27623;51.966;4.602;2022-08-01T09:44:35;7.97;;;1.55;;
41635;SDS011;27623;51.966;4.602;2022-08-01T09:47:03;11.73;;;2.17;;
41635;SDS011;27623;51.966;4.602;2022-08-01T09:49:31;7.63;;;1.60;;
41635;SDS011;27623;51.966;4.602;2022-08-01T09:52:00;8.60;;;1.45;;
41635;SDS011;27623;51.966;4.602;2022-08-01T09:55:20;6.13;;;1.50;;
41635;SDS011;27623;51.966;4.602;2022-08-01T09:57:37;7.97;;;1.50;;
41635;SDS011;27623;51.966;4.602;2022-08-01T10:00:03;11.27;;;1.90;;
41635;SDS011;27623;51.966;4.602;2022-08-01T10:04:59;10.15;;;2.30;;
41635;SDS011;27623;51.966;4.602;2022-08-01T10:07:26;8.10;;;1.60;;
41635;SDS011;27623;51.966;4.602;2022-08-01T10:09:51;7.47;;;1.52;;
41635;SDS011;27623;51.966;4.602;2022-08-01T10:12:18;5.80;;;1.42;;
41635;SDS011;27623;51.966;4.602;2022-08-01T10:14:45;6.13;;;1.40;;
41635;SDS011;27623;51.966;4.602;2022-08-01T10:17:14;6.35;;;1.40;;
41635;SDS011;27623;51.966;4.602;2022-08-01T10:19:42;8.75;;;1.83;;
41635;SDS011;27623;51.966;4.602;2022-08-01T10:22:09;8.45;;;1.52;;
41635;SDS011;27623;51.966;4.602;2022-08-01T10:24:45;6.55;;;2.03;;
41635;SDS011;27623;51.966;4.602;2022-08-01T10:27:13;9.23;;;1.70;;
41635;SDS011;27623;51.966;4.602;2022-08-01T10:29:56;6.07;;;1.23;;
41635;SDS011;27623;51.966;4.602;2022-08-01T10:32:28;5.53;;;1.95;;
41635;SDS011;27623;51.966;4.602;2022-08-01T10:34:57;8.35;;;1.58;;
41635;SDS011;27623;51.966;4.602;2022-08-01T10:37:24;9.88;;;1.70;;
41635;SDS011;27623;51.966;4.602;2022-08-01T10:39:50;3.30;;;1.08;;
41635;SDS011;27623;51.966;4.602;2022-08-01T10:42:16;6.78;;;1.60;;
41635;SDS011;27623;51.966;4.602;2022-08-01T10:44:42;6.30;;;1.42;;
41635;SDS011;27623;51.966;4.602;2022-08-01T10:47:12;4.82;;;1.70;;
41635;SDS011;27623;51.966;4.602;2022-08-01T10:49:54;6.40;;;1.30;;
41635;SDS011;27623;51.966;4.602;2022-08-01T10:52:27;5.28;;;1.52;;
41635;SDS011;27623;51.966;4.602;2022-08-01T10:55:06;14.43;;;1.95;;
41635;SDS011;27623;51.966;4.602;2022-08-01T10:57:44;7.28;;;2.20;;
41635;SDS011;27623;51.966;4.602;2022-08-01T11:00:17;7.03;;;1.40;;
41635;SDS011;27623;51.966;4.602;2022-08-01T11:02:56;5.95;;;1.67;;
41635;SDS011;27623;51.966;4.602;2022-08-01T11:05:25;8.02;;;1.75;;
41635;SDS011;27623;51.966;4.602;2022-08-01T11:07:53;8.65;;;1.63;;
41635;SDS011;27623;51.966;4.602;2022-08-01T11:13:05;6.07;;;1.52;;
41635;SDS011;27623;51.966;4.602;2022-08-01T11:15:36;5.15;;;1.48;;
41635;SDS011;27623;51.966;4.602;2022-08-01T11:18:47;8.70;;;1.80;;
41635;SDS011;27623;51.966;4.602;2022-08-01T11:21:01;8.00;;;1.67;;
41635;SDS011;27623;51.966;4.602;2022-08-01T11:23:27;9.25;;;1.50;;
41635;SDS011;27623;51.966;4.602;2022-08-01T11:28:20;7.20;;;1.83;;
41635;SDS011;27623;51.966;4.602;2022-08-01T11:30:52;7.45;;;1.77;;
41635;SDS011;27623;51.966;4.602;2022-08-01T11:41:10;6.38;;;1.65;;
41635;SDS011;27623;51.966;4.602;2022-08-01T11:44:23;7.90;;;1.48;;
41635;SDS011;27623;51.966;4.602;2022-08-01T11:52:06;5.82;;;1.40;;
41635;SDS011;27623;51.966;4.602;2022-08-01T11:54:35;7.93;;;1.63;;
41635;SDS011;27623;51.966;4.602;2022-08-01T11:57:02;9.13;;;1.55;;
41635;SDS011;27623;51.966;4.602;2022-08-01T11:59:35;5.30;;;1.85;;
41635;SDS011;27623;51.966;4.602;2022-08-01T12:02:02;9.85;;;1.50;;
41635;SDS011;27623;51.966;4.602;2022-08-01T12:04:43;8.65;;;1.60;;
41635;SDS011;27623;51.966;4.602;2022-08-01T12:07:12;4.65;;;1.38;;
41635;SDS011;27623;51.966;4.602;2022-08-01T12:09:39;6.22;;;1.38;;
41635;SDS011;27623;51.966;4.602;2022-08-01T12:12:04;6.72;;;1.40;;
41635;SDS011;27623;51.966;4.602;2022-08-01T12:14:30;6.93;;;1.30;;
41635;SDS011;27623;51.966;4.602;2022-08-01T12:16:56;10.25;;;1.70;;
41635;SDS011;27623;51.966;4.602;2022-08-01T12:19:23;9.00;;;1.75;;
41635;SDS011;27623;51.966;4.602;2022-08-01T12:24:35;4.68;;;1.10;;
41635;SDS011;27623;51.966;4.602;2022-08-01T12:27:01;10.00;;;1.67;;
41635;SDS011;27623;51.966;4.602;2022-08-01T12:29:41;5.95;;;1.08;;
41635;SDS011;27623;51.966;4.602;2022-08-01T12:32:32;7.18;;;1.33;;
41635;SDS011;27623;51.966;4.602;2022-08-01T12:35:04;6.13;;;1.40;;
41635;SDS011;27623;51.966;4.602;2022-08-01T12:37:37;5.78;;;1.05;;
41635;SDS011;27623;51.966;4.602;2022-08-01T12:40:10;8.25;;;1.90;;
41635;SDS011;27623;51.966;4.602;2022-08-01T12:42:38;8.48;;;1.70;;
41635;SDS011;27623;51.966;4.602;2022-08-01T12:45:05;4.20;;;1.30;;
41635;SDS011;27623;51.966;4.602;2022-08-01T12:47:33;9.50;;;2.03;;
41635;SDS011;27623;51.966;4.602;2022-08-01T12:50:01;11.13;;;1.58;;
41635;SDS011;27623;51.966;4.602;2022-08-01T12:52:27;8.40;;;1.70;;
41635;SDS011;27623;51.966;4.602;2022-08-01T12:54:59;6.80;;;1.30;;
41635;SDS011;27623;51.966;4.602;2022-08-01T12:57:25;9.32;;;1.40;;
41635;SDS011;27623;51.966;4.602;2022-08-01T13:00:04;7.35;;;1.00;;
41635;SDS011;27623;51.966;4.602;2022-08-01T13:02:32;8.50;;;1.80;;
41635;SDS011;27623;51.966;4.602;2022-08-01T13:04:58;6.80;;;1.45;;
41635;SDS011;27623;51.966;4.602;2022-08-01T13:07:34;6.32;;;1.23;;
41635;SDS011;27623;51.966;4.602;2022-08-01T13:10:00;9.23;;;2.17;;
41635;SDS011;27623;51.966;4.602;2022-08-01T13:12:28;3.20;;;1.00;;
41635;SDS011;27623;51.966;4.602;2022-08-01T13:14:54;7.68;;;1.25;;
41635;SDS011;27623;51.966;4.602;2022-08-01T13:17:34;5.70;;;1.30;;
41635;SDS011;27623;51.966;4.602;2022-08-01T13:20:02;4.63;;;1.20;;
41635;SDS011;27623;51.966;4.602;2022-08-01T13:22:35;6.10;;;1.33;;
41635;SDS011;27623;51.966;4.602;2022-08-01T13:25:11;5.35;;;1.20;;
41635;SDS011;27623;51.966;4.602;2022-08-01T13:27:37;8.85;;;1.42;;
41635;SDS011;27623;51.966;4.602;2022-08-01T13:30:18;6.15;;;1.15;;
41635;SDS011;27623;51.966;4.602;2022-08-01T13:32:56;4.13;;;1.10;;
41635;SDS011;27623;51.966;4.602;2022-08-01T13:35:23;10.23;;;1.58;;
41635;SDS011;27623;51.966;4.602;2022-08-01T13:37:49;3.80;;;1.48;;
41635;SDS011;27623;51.966;4.602;2022-08-01T13:40:22;5.80;;;1.40;;
41635;SDS011;27623;51.966;4.602;2022-08-01T13:42:54;5.72;;;1.33;;
41635;SDS011;27623;51.966;4.602;2022-08-01T13:45:21;7.40;;;1.60;;
41635;SDS011;27623;51.966;4.602;2022-08-01T13:47:47;6.03;;;1.10;;
41635;SDS011;27623;51.966;4.602;2022-08-01T13:50:15;6.30;;;1.38;;
41635;SDS011;27623;51.966;4.602;2022-08-01T13:52:43;10.07;;;2.05;;
41635;SDS011;27623;51.966;4.602;2022-08-01T13:55:09;6.88;;;1.30;;
41635;SDS011;27623;51.966;4.602;2022-08-01T13:57:35;5.25;;;1.10;;
41635;SDS011;27623;51.966;4.602;2022-08-01T14:00:01;7.13;;;1.45;;
41635;SDS011;27623;51.966;4.602;2022-08-01T14:02:27;6.70;;;1.80;;
41635;SDS011;27623;51.966;4.602;2022-08-01T14:04:55;7.30;;;1.40;;
41635;SDS011;27623;51.966;4.602;2022-08-01T14:07:23;2.97;;;1.20;;
41635;SDS011;27623;51.966;4.602;2022-08-01T14:09:49;5.80;;;0.90;;
41635;SDS011;27623;51.966;4.602;2022-08-01T14:12:15;6.95;;;2.03;;
41635;SDS011;27623;51.966;4.602;2022-08-01T14:14:40;6.80;;;1.45;;
41635;SDS011;27623;51.966;4.602;2022-08-01T14:17:06;6.88;;;1.50;;
41635;SDS011;27623;51.966;4.602;2022-08-01T14:19:32;5.25;;;1.35;;
41635;SDS011;27623;51.966;4.602;2022-08-01T14:21:57;5.45;;;1.30;;
41635;SDS011;27623;51.966;4.602;2022-08-01T14:24:23;4.90;;;1.17;;
41635;SDS011;27623;51.966;4.602;2022-08-01T14:26:49;5.10;;;1.25;;
41635;SDS011;27623;51.966;4.602;2022-08-01T14:29:15;5.05;;;1.05;;
41635;SDS011;27623;51.966;4.602;2022-08-01T14:31:40;5.35;;;1.15;;
41635;SDS011;27623;51.966;4.602;2022-08-01T14:34:06;5.38;;;1.00;;
41635;SDS011;27623;51.966;4.602;2022-08-01T14:36:32;5.55;;;1.67;;
41635;SDS011;27623;51.966;4.602;2022-08-01T14:38:58;5.60;;;1.35;;
41635;SDS011;27623;51.966;4.602;2022-08-01T14:41:24;4.57;;;1.10;;
41635;SDS011;27623;51.966;4.602;2022-08-01T14:43:49;7.15;;;1.00;;
41635;SDS011;27623;51.966;4.602;2022-08-01T14:46:17;8.02;;;1.10;;
41635;SDS011;27623;51.966;4.602;2022-08-01T14:48:43;3.83;;;1.02;;
41635;SDS011;27623;51.966;4.602;2022-08-01T14:51:09;3.90;;;0.82;;
41635;SDS011;27623;51.966;4.602;2022-08-01T14:53:34;6.85;;;1.00;;
41635;SDS011;27623;51.966;4.602;2022-08-01T14:56:02;5.97;;;0.90;;
41635;SDS011;27623;51.966;4.602;2022-08-01T14:58:28;2.78;;;1.00;;
41635;SDS011;27623;51.966;4.602;2022-08-01T15:00:54;5.80;;;1.27;;
41635;SDS011;27623;51.966;4.602;2022-08-01T15:03:20;3.00;;;1.00;;
41635;SDS011;27623;51.966;4.602;2022-08-01T15:05:46;2.33;;;0.75;;
41635;SDS011;27623;51.966;4.602;2022-08-01T15:08:11;11.98;;;1.45;;
41635;SDS011;27623;51.966;4.602;2022-08-01T15:10:36;4.13;;;1.25;;
41635;SDS011;27623;51.966;4.602;2022-08-01T15:13:02;7.60;;;1.58;;
41635;SDS011;27623;51.966;4.602;2022-08-01T15:15:28;6.13;;;1.65;;
41635;SDS011;27623;51.966;4.602;2022-08-01T15:17:54;3.47;;;1.05;;
41635;SDS011;27623;51.966;4.602;2022-08-01T15:20:20;5.07;;;1.20;;
41635;SDS011;27623;51.966;4.602;2022-08-01T15:22:45;7.38;;;1.30;;
41635;SDS011;27623;51.966;4.602;2022-08-01T15:25:12;4.57;;;1.40;;